Brunswick Golden Isles Airport
KBQK : now visible

Airfield :











YOU CAN JOIN US ON...

 
LOGIN :

Register | Disclaimer

   EN    FR    IT 

 









Legend :    VFR   Marginal VFR   IFR   Intensive IFR   Very Intensive IFR
Visi :
Ceiling :
>= 8 km
>= 3000ft
5 to 8 km
1000 to 3000 ft
1500m to 5 km
500 to 1000 ft
800 to 1500m
200 to 500 ft
< 800m
< 200 ft
Symbols :   Thunderstorms  Fog  Heavy snow  Heavy precipitations  Wind > 20 kt






- Airport Elevation : 26 ft
- IATA code : BQK


KBQK - Brunswick Golden Isles

CURRENT METAR :
  • 251915Z AUTO 12007KT 10SM SCT017 SCT029 28/22 A2988 RMK AO2 T02760222

EXPIRED METARs :
  • 251855Z AUTO 12007KT 10SM SCT019 SCT055 SCT070 28/22 A2989 RMK AO2 T02770223
  • 251835Z AUTO 08006KT 10SM SCT016 BKN055 BKN070 27/22 A2990 RMK AO2 T02710219
  • 251815Z AUTO 08007KT 10SM BKN016 OVC028 26/22 A2991 RMK AO2 T02650222
  • 251755Z AUTO 02005KT 10SM BKN018 BKN029 OVC036 26/22 A2992 RMK AO2 T02620222 10278 20208
  • 251735Z AUTO 13004KT 10SM SCT011 BKN029 OVC038 27/22 A2992 RMK AO2 T02710224
  • 251715Z AUTO 12004KT 10SM SCT019 SCT029 BKN040 27/23 A2993 RMK AO2 T02660228
  • 251655Z AUTO 13006KT 10SM SCT019 BKN038 OVC060 27/22 A2994 RMK AO2 T02670222
  • 251635Z AUTO 14005KT 10SM BKN070 OVC090 26/22 A2994 RMK AO2 T02610221

TAF N/A
KZJX FIR / North America



MET'MAP, your aeronautical weather chart ! - Copyright ORBIFLY December 2007 - Disclaimer

ORBIFLY MET'MAP TEAM :

Programming & Development : Alexandra Zaïnal
Concept & original design : Baudouin d'Aumeries
Assistance for programming : Marc-Olivier Méhu
Technical & hardware support : Manuel Goepfert

Contact : metmap@orbifly.com




SOURCES & CREDITS :

   NOAA       Earth
Advisory